Latest Weather Observations for Richmond

IDN60901

Issued at 6:01 pm EDT Monday 30 March 2015 (issued every 10 minutes, with the page automatically refreshed every 10 minutes)

About weather observations | Map of Sydney area stations | Latest observations for Sydney area | Other Formats
Station Details ID: 067105 Name: RICHMOND RAAF Lat: -33.60 Lon: 150.78 Height: 19.0 m
Data from the previous 72 hours. | See also: Recent months at Richmond
Date/Time
EDT
Tmp

°C
App
Tmp
°C
Dew
Point
°C
Rel
Hum
%
Delta-T

°C
Wind Press
QNH
hPa
Press
MSL
hPa
Rain
since
9 am
mm
Dir
 
Spd
km/h
Gust
km/h
Spd
kts
Gust
kts
30/05:30pm 22.7 22.8 16.5 68 3.8 ENE 11 15 6 8 1022.7 1022.7 0.2
30/05:00pm 23.3 23.1 16.6 66 4.1 ENE 13 19 7 10 1022.3 1022.3 0.2
30/04:30pm 23.4 23.0 16.2 64 4.4 E 13 19 7 10 1022.0 1022.0 0.2
30/04:00pm 23.6 21.8 15.6 61 4.8 E 19 24 10 13 1022.0 1022.0 0.2
30/03:30pm 24.2 22.5 15.7 59 5.1 ENE 19 26 10 14 1022.0 1022.0 0.2
30/03:00pm 24.2 22.5 15.7 59 5.1 ENE 19 24 10 13 1022.1 1022.1 0.2
30/02:30pm 24.6 25.2 15.2 55 5.6 ESE 6 13 3 7 1022.2 1022.2 0.2
30/02:00pm 24.5 24.8 14.9 55 5.7 SE 7 19 4 10 1022.5 1022.5 0.2
30/01:30pm 24.0 23.2 15.0 57 5.4 SSE 13 17 7 9 1022.8 1022.8 0.2
30/01:00pm 23.4 23.8 16.4 64 4.3 SSE 9 15 5 8 1023.2 1023.2 0.2
30/12:30pm 23.5 23.2 17.3 68 3.8 SE 15 20 8 11 1023.2 1023.2 0.2
30/11:30am 22.1 24.2 19.3 84 1.8 S 7 13 4 7 1024.0 1024.0 0.2
30/11:00am 20.6 22.3 19.4 93 0.8 WSW 9 13 5 7 1024.1 1024.1 0.0
30/10:30am 18.7 19.3 15.4 81 1.9 W 6 11 3 6 1024.1 1024.1 0.0
30/10:00am 20.2 21.7 16.6 80 2.2 NNW 4 7 2 4 1024.4 1024.4 0.0
30/09:30am 19.0 21.1 17.3 90 1.0 NW 2 6 1 3 1024.4 1024.4 0.0
30/09:00am 17.9 18.9 16.8 93 0.7 NNE 7 9 4 5 1024.5 1024.5 0.0
30/08:30am 18.0 18.9 16.7 92 0.8 E 7 9 4 5 1024.2 1024.2 0.0
30/08:00am 17.4 19.1 16.3 93 0.7 NE 2 9 1 5 1024.1 1024.1 0.0
30/07:30am 17.3 18.5 16.0 92 0.8 ENE 4 11 2 6 1023.7 1023.7 0.0
30/07:00am 17.3 18.2 16.0 92 0.8 NE 6 9 3 5 1023.4 1023.4 0.0
30/06:30am 17.2 19.1 15.7 91 0.9 CALM 0 0 0 0 1023.2 1023.2 0.0
30/05:30am 17.3 18.8 15.6 90 1.0 NW 2 6 1 3 1022.4 1022.4 0.0
30/05:00am 17.1 17.9 15.8 92 0.8 NW 6 7 3 4 1022.1 1022.1 0.0
30/04:30am 17.1 18.0 16.0 93 0.6 NNW 6 7 3 4 1022.1 1022.1 0.0
30/04:00am 17.6 18.3 15.6 88 1.2 SSW 6 7 3 4 1022.0 1022.0 0.0
30/03:30am 17.8 18.6 15.8 88 1.2 SSW 6 7 3 4 1022.0 1022.0 0.0
30/03:00am 17.6 18.4 15.9 90 1.0 WSW 6 9 3 5 1022.3 1022.3 0.0
30/02:30am 17.8 18.5 16.0 89 1.1 SW 7 9 4 5 1022.3 1022.3 0.0
30/02:00am 17.6 18.2 15.9 90 1.0 W 7 9 4 5 1022.6 1022.6 0.0
30/01:30am 17.5 18.4 16.0 91 0.9 SW 6 7 3 4 1022.5 1022.5 0.0
30/01:00am 17.8 18.5 16.0 89 1.1 SSW 7 9 4 5 1022.7 1022.7 0.0
30/12:30am 17.8 18.5 16.1 90 1.0 S 7 9 4 5 1022.7 1022.7 0.0
 
Date/Time
EDT
Tmp

°C
App
Tmp
°C
Dew
Point
°C
Rel
Hum
%
Delta-T

°C
Wind Press
QNH
hPa
Press
MSL
hPa
Rain
since
9 am
mm
Dir
 
Spd
km/h
Gust
km/h
Spd
kts
Gust
kts
29/11:30pm 18.3 20.0 16.3 88 1.2 SW 2 7 1 4 1023.0 1023.0 0.0
29/11:00pm 17.4 17.9 15.6 89 1.1 WSW 7 7 4 4 1023.2 1023.2 0.0
29/10:30pm 18.1 19.9 15.5 85 1.5 CALM 0 0 0 0 1023.2 1023.2 0.0
29/10:00pm 18.7 20.7 15.9 84 1.7 CALM 0 0 0 0 1022.9 1022.9 0.0
29/09:30pm 20.2 20.5 16.0 77 2.5 SE 9 11 5 6 1022.5 1022.5 0.0
29/09:00pm 20.1 20.7 15.9 77 2.5 E 7 9 4 5 1022.1 1022.1 0.0
29/08:30pm 20.1 20.7 15.7 76 2.6 NE 7 9 4 5 1021.7 1021.7 0.0
29/08:00pm 20.9 21.6 16.1 74 2.9 ENE 7 13 4 7 1021.5 1021.5 0.0
29/07:30pm 21.5 21.9 16.2 72 3.2 ENE 9 13 5 7 1021.1 1021.0 0.0
29/07:00pm 22.2 21.4 16.0 68 3.7 ENE 15 22 8 12 1020.5 1020.4 0.0
29/06:30pm 23.3 22.5 16.1 64 4.4 ENE 15 20 8 11 1020.2 1020.1 0.0
29/05:30pm 25.7 22.7 9.1 35 9.0 E 15 19 8 10 1019.7 1019.6 0.0
29/05:00pm 26.0 22.7 9.4 35 9.1 E 17 22 9 12 1019.6 1019.5 0.0
29/04:30pm 26.3 23.6 10.5 37 8.8 E 15 20 8 11 1019.9 1019.8 0.0
29/04:00pm 27.1 25.4 12.3 39 8.6 ENE 13 20 7 11 1020.0 1019.9 0.0
29/03:30pm 26.5 24.5 11.4 39 8.6 ENE 13 20 7 11 1020.1 1020.0 0.0
29/03:00pm 26.4 25.7 11.3 39 8.6 NNE 6 17 3 9 1020.2 1020.1 0.0
29/02:30pm 26.3 24.2 11.2 38 8.6 ENE 13 19 7 10 1020.5 1020.4 0.0
29/02:00pm 25.9 24.7 12.7 44 7.6 NE 11 19 6 10 1020.9 1020.8 0.0
29/01:30pm 25.3 24.4 13.8 49 6.8 ENE 11 20 6 11 1021.4 1021.4 0.0
29/01:00pm 24.4 22.7 13.6 51 6.3 N 15 22 8 12 1022.2 1022.2 0.0
29/12:30pm 24.0 22.8 14.1 54 5.8 NNE 13 17 7 9 1022.4 1022.4 0.0
29/12:00pm 23.5 21.5 13.9 55 5.6 N 17 24 9 13 1022.9 1022.9 0.0
29/11:30am 22.1 21.5 14.7 63 4.4 ENE 11 19 6 10 1023.1 1023.1 0.0
29/11:00am 21.8 21.9 15.4 67 3.8 N 9 17 5 9 1023.4 1023.4 0.0
29/10:30am 20.4 20.6 14.1 67 3.6 ENE 6 9 3 5 1023.7 1023.7 0.0
29/10:00am 18.8 19.1 13.4 71 3.1 NW 4 7 2 4 1024.0 1024.0 0.0
29/09:30am 17.0 17.2 14.3 84 1.5 ESE 6 9 3 5 1023.8 1023.8 0.0
29/09:00am 15.4 15.3 13.9 91 0.8 ESE 7 9 4 5 1023.5 1023.5 0.0
29/08:30am 14.5 15.4 14.0 97 0.3 ENE 2 6 1 3 1023.5 1023.5 0.0
29/07:00am 12.8 13.4 12.0 95 0.4 CALM 0 0 0 0 1022.8 1022.8 0.0
29/06:30am 13.1 13.8 12.2 94 0.5 CALM 0 0 0 0 1022.8 1022.8 0.0
29/06:00am 13.6 13.2 12.5 93 0.6 SSE 6 9 3 5 1022.1 1022.1 0.0
29/05:30am 13.8 14.6 12.5 92 0.7 CALM 0 0 0 0 1022.2 1022.2 0.0
29/05:00am 13.8 14.5 12.2 90 0.9 CALM 0 0 0 0 1022.2 1022.2 0.0
29/04:30am 13.9 14.6 12.1 89 1.0 CALM 0 0 0 0 1022.1 1022.1 0.0
29/04:00am 14.9 15.9 13.3 90 0.9 CALM 0 0 0 0 1022.2 1022.2 0.0
29/03:30am 15.4 15.3 13.4 88 1.1 ESE 6 9 3 5 1022.4 1022.4 0.0
29/03:00am 15.5 16.4 13.0 85 1.4 CALM 0 0 0 0 1022.5 1022.5 0.0
29/02:30am 16.2 16.3 12.7 80 1.9 ESE 4 11 2 6 1022.7 1022.7 0.0
29/02:00am 16.5 17.5 13.2 81 1.8 CALM 0 9 0 5 1022.8 1022.8 0.0
29/01:30am 17.2 18.2 13.1 77 2.3 CALM 0 0 0 0 1023.0 1023.0 0.0
29/01:00am 17.4 17.1 12.7 74 2.6 S 6 7 3 4 1023.2 1023.2 0.0
29/12:30am 17.6 17.4 13.1 75 2.5 SSW 6 7 3 4 1023.3 1023.3 0.0
29/12:00am 17.5 17.1 13.0 75 2.5 SSW 7 9 4 5 1023.5 1023.5 0.0
 
Date/Time
EDT
Tmp

°C
App
Tmp
°C
Dew
Point
°C
Rel
Hum
%
Delta-T

°C
Wind Press
QNH
hPa
Press
MSL
hPa
Rain
since
9 am
mm
Dir
 
Spd
km/h
Gust
km/h
Spd
kts
Gust
kts
28/11:30pm 17.9 18.8 12.8 72 2.9 CALM 0 0 0 0 1023.5 1023.5 0.0
28/11:00pm 17.9 18.8 12.8 72 2.8 CALM 0 0 0 0 1023.6 1023.6 0.0
28/10:30pm 18.4 19.1 13.3 72 2.9 W 2 7 1 4 1024.0 1024.0 0.0
28/10:00pm 18.2 18.0 13.1 72 2.9 W 6 7 3 4 1024.2 1024.2 0.0
28/09:30pm 18.8 18.4 12.3 66 3.6 ESE 6 9 3 5 1023.9 1023.9 0.0
28/09:00pm 18.8 19.5 12.3 66 3.6 CALM 0 0 0 0 1023.5 1023.5 0.0
28/08:30pm 18.7 18.1 12.2 66 3.6 E 7 11 4 6 1023.1 1023.1 0.0
28/08:00pm 19.1 17.7 12.1 64 3.9 E 11 17 6 9 1022.9 1022.9 0.0
28/07:30pm 18.9 17.0 11.9 64 3.9 ESE 13 19 7 10 1022.4 1022.4 0.0
28/07:00pm 20.0 16.8 12.0 60 4.4 ESE 20 28 11 15 1021.8 1021.8 0.0
28/06:30pm 21.0 18.0 11.9 56 5.1 E 19 26 10 14 1021.4 1021.4 0.0
28/06:00pm 22.1 18.1 11.8 52 5.8 ESE 24 32 13 17 1021.0 1020.9 0.0
28/05:30pm 23.3 21.7 11.4 47 6.7 SE 11 24 6 13 1020.7 1020.6 0.0
28/05:00pm 24.0 22.0 7.2 34 8.7 E 7 13 4 7 1020.7 1020.6 0.0
28/04:30pm 24.2 22.6 8.6 37 8.4 SSW 7 11 4 6 1020.7 1020.6 0.0
28/04:00pm 24.5 23.5 7.2 33 9.0 N 2 13 1 7 1020.9 1020.8 0.0
28/03:30pm 23.3 20.8 6.6 34 8.6 ESE 9 13 5 7 1021.2 1021.1 0.0
28/03:00pm 23.8 21.6 7.8 36 8.4 SE 9 15 5 8 1021.5 1021.5 0.0
28/02:30pm 23.1 20.7 7.2 36 8.3 N 9 15 5 8 1021.7 1021.7 0.0
28/02:00pm 22.8 21.1 8.5 40 7.6 NNW 7 22 4 12 1022.1 1022.1 0.0
28/01:30pm 22.9 21.0 9.0 41 7.4 N 9 20 5 11 1022.5 1022.5 0.0
28/01:00pm 22.6 20.3 9.0 42 7.2 ENE 11 17 6 9 1022.9 1022.9 0.0
28/12:30pm 21.7 19.9 7.2 39 7.5 SSE 6 13 3 7 1023.2 1023.2 0.0
28/12:00pm 21.9 20.1 7.0 38 7.6 E 6 17 3 9 1023.6 1023.6 0.0
28/11:30am 21.6 20.0 8.1 42 7.1 NNW 6 9 3 5 1023.7 1023.7 0.0
28/11:00am 20.2 18.2 7.2 43 6.6 W 7 13 4 7 1023.8 1023.8 0.0
28/10:30am 19.3 18.1 8.0 48 5.8 W 4 9 2 5 1024.0 1024.0 0.0
28/10:00am 17.6 17.4 9.0 57 4.4 CALM 0 7 0 4 1024.1 1024.1 0.0
28/09:30am 15.5 15.1 9.6 68 3.1 SSW 2 7 1 4 1024.1 1024.1 0.0
28/09:00am 13.5 13.4 9.4 76 2.1 CALM 0 0 0 0 1023.9 1023.9 0.0
28/08:30am 11.4 10.3 9.8 90 0.8 NNW 6 9 3 5 1023.7 1023.7 0.0
28/08:00am 10.3 10.2 9.4 94 0.4 CALM 0 0 0 0 1023.2 1023.2 0.0
28/07:30am 8.6 8.1 8.0 96 0.3 CALM 0 0 0 0 1022.9 1022.9 0.0
28/07:00am 9.1 8.5 8.8 98 0.1 NNE 2 6 1 3 1022.5 1022.5 0.0
28/06:30am 8.4 7.9 8.0 97 0.2 CALM 0 0 0 0 1022.1 1022.1 0.0
28/06:00am 8.4 7.8 7.6 95 0.4 CALM 0 0 0 0 1021.7 1021.7 0.0
28/05:30am 8.4 7.8 7.3 93 0.5 CALM 0 0 0 0 1021.2 1021.1 0.0
28/05:00am 8.5 7.9 7.3 92 0.6 CALM 0 0 0 0 1020.9 1020.8 0.0
28/04:30am 9.2 8.7 7.8 91 0.7 CALM 0 0 0 0 1020.7 1020.6 0.0
28/04:00am 9.9 8.5 8.8 93 0.5 NNE 6 7 3 4 1020.7 1020.6 0.0
28/03:30am 10.2 9.9 8.8 91 0.7 CALM 0 0 0 0 1020.9 1020.8 0.0
28/03:00am 10.4 10.0 8.2 86 1.1 CALM 0 0 0 0 1020.8 1020.7 0.0
28/02:30am 11.0 10.2 8.0 82 1.5 SSE 2 6 1 3 1021.0 1020.9 0.0
28/02:00am 12.3 11.0 10.0 86 1.2 NNE 7 9 4 5 1020.9 1020.8 0.0
28/01:30am 12.2 11.1 8.5 78 1.8 SSE 4 7 2 4 1020.9 1020.8 0.0
28/01:00am 13.3 12.6 8.6 73 2.3 NE 2 6 1 3 1020.7 1020.6 0.0
28/12:30am 13.6 12.6 8.7 72 2.5 ESE 4 6 2 3 1020.7 1020.6 0.0
28/12:00am 13.8 11.2 5.9 59 3.7 WSW 9 11 5 6 1020.6 1020.5 0.0
 
Date/Time
EDT
Tmp

°C
App
Tmp
°C
Dew
Point
°C
Rel
Hum
%
Delta-T

°C
Wind Press
QNH
hPa
Press
MSL
hPa
Rain
since
9 am
mm
Dir
 
Spd
km/h
Gust
km/h
Spd
kts
Gust
kts
27/11:30pm 16.2 13.6 6.3 52 4.8 WSW 9 13 5 7 1020.6 1020.5 0.0
27/11:00pm 15.7 12.7 5.9 52 4.7 WSW 11 15 6 8 1020.6 1020.5 0.0
27/10:30pm 18.7 14.5 5.5 42 6.4 WSW 17 20 9 11 1020.4 1020.3 0.0
27/10:00pm 18.5 14.7 6.0 44 6.1 WSW 15 20 8 11 1020.3 1020.2 0.0
27/09:30pm 18.4 15.0 5.9 44 6.1 WSW 13 17 7 9 1020.0 1019.9 0.0
27/09:00pm 17.6 16.1 4.9 43 6.1 WSW 2 7 1 4 1019.7 1019.6 0.0
27/08:30pm 19.5 15.7 5.9 41 6.7 WSW 15 19 8 10 1019.3 1019.2 0.0
27/08:00pm 20.3 17.4 4.4 35 7.7 WSW 9 13 5 7 1018.7 1018.6 0.0
27/07:30pm 21.2 17.6 5.1 35 7.9 WSW 13 17 7 9 1018.2 1018.1 0.0
27/07:00pm 22.0 18.5 5.4 34 8.3 WSW 13 15 7 8 1017.6 1017.5 0.0
27/06:30pm 23.8 19.4 4.7 29 9.5 WNW 17 20 9 11 1017.2 1017.1 0.0

Latest Capital City Observations: Canberra | Sydney | Melbourne | Brisbane | Adelaide | Perth | Hobart | Darwin

Other Formats:

Comma delimited format used in spreadsheet applications
http://www.bom.gov.au/fwo/IDN60901/IDN60901.95753.axf

JavaScript Object Notation format (JSON) in row-major order
http://www.bom.gov.au/fwo/IDN60901/IDN60901.95753.json